Time;durP1;ratioP1;P1;durP2;ratioP2;P2;SDS_P1;SDS_P2;PMS_P1;PMS_P2;Temp;Humidity;BMP_temperature;BMP_pressure;BME280_temperature;BME280_humidity;BME280_pressure;Samples;Min_cycle;Max_cycle;Signal;HPM_P1;HPM_P2
2022/07/29 00:00:58;;;;;;;5.50;4.10;;;;;;;16.18;73.06;99285.22;105146;1271;62007;-25
2022/07/29 00:03:26;;;;;;;8.00;3.90;;;;;;;15.98;72.96;99285.82;104954;1269;75473;-25
2022/07/29 00:05:55;;;;;;;4.60;3.10;;;;;;;15.84;73.72;99288.95;105014;1271;75937;-25
2022/07/29 00:08:22;;;;;;;7.00;4.10;;;;;;;16.29;74.14;99289.92;104968;1271;74525;-25
2022/07/29 00:10:50;;;;;;;6.60;3.50;;;;;;;16.85;72.62;99292.63;104617;1271;62054;-25
2022/07/29 00:13:25;;;;;;;7.80;4.10;;;;;;;16.87;71.93;99290.16;104711;1271;61108;-25
2022/07/29 00:16:02;;;;;;;11.20;4.00;;;;;;;16.67;72.52;99292.50;104664;1274;75681;-24
2022/07/29 00:18:32;;;;;;;4.50;3.10;;;;;;;16.53;72.88;99295.73;104848;1271;76141;-25
2022/07/29 00:21:03;;;;;;;4.60;3.20;;;;;;;16.39;72.43;99297.67;104908;1271;74382;-25
2022/07/29 00:23:30;;;;;;;4.60;2.70;;;;;;;16.26;73.65;99296.75;104932;1271;61134;-25
2022/07/29 00:26:03;;;;;;;7.10;2.90;;;;;;;16.66;73.45;99299.69;104941;1271;61471;-25
2022/07/29 00:28:33;;;;;;;3.50;2.60;;;;;;;17.16;71.98;99299.14;104879;1271;75728;-25
2022/07/29 00:31:01;;;;;;;5.70;4.20;;;;;;;17.21;71.24;99292.44;105113;1271;76264;-25
2022/07/29 00:33:30;;;;;;;5.80;3.70;;;;;;;17.04;71.47;99292.38;104977;1271;74417;-25
2022/07/29 00:35:57;;;;;;;7.60;4.20;;;;;;;16.83;71.87;99286.56;104973;1271;63766;-25
2022/07/29 00:38:25;;;;;;;8.10;4.50;;;;;;;16.63;72.35;99291.75;104816;1271;61077;-25
2022/07/29 00:40:53;;;;;;;6.80;3.80;;;;;;;16.46;73.52;99295.77;104426;1271;580942;-25
2022/07/29 00:43:20;;;;;;;5.20;2.80;;;;;;;16.30;73.91;99298.22;104884;1271;76112;-25
2022/07/29 00:45:48;;;;;;;5.60;2.60;;;;;;;16.78;73.64;99299.41;104850;1271;74535;-25
2022/07/29 00:48:20;;;;;;;5.00;3.00;;;;;;;17.29;71.93;99298.55;105233;1270;61792;-25
2022/07/29 00:50:49;;;;;;;9.40;3.90;;;;;;;17.31;71.55;99296.33;105149;1271;61024;-25
2022/07/29 00:53:16;;;;;;;3.90;3.00;;;;;;;17.11;71.68;99295.58;104861;1271;75483;-25
2022/07/29 00:55:44;;;;;;;5.20;3.30;;;;;;;16.85;72.28;99291.77;104841;1271;76452;-25
2022/07/29 00:58:12;;;;;;;9.90;4.00;;;;;;;16.68;72.62;99292.41;104754;1271;74389;-25
2022/07/29 01:00:40;;;;;;;6.20;3.80;;;;;;;16.52;73.07;99292.30;104972;1271;61133;-25
2022/07/29 01:03:12;;;;;;;4.70;2.70;;;;;;;16.41;73.87;99288.31;104817;1271;61082;-25
2022/07/29 01:05:41;;;;;;;8.80;3.60;;;;;;;16.91;73.14;99289.06;104982;1271;75321;-25
2022/07/29 01:08:19;;;;;;;9.30;4.70;;;;;;;17.50;71.79;99286.45;104894;1271;74835;-25
2022/07/29 01:10:46;;;;;;;12.80;6.20;;;;;;;17.55;70.88;99285.16;105280;1271;74203;-25
2022/07/29 01:13:14;;;;;;;11.10;6.40;;;;;;;17.33;71.28;99283.93;105124;1271;60979;-25
2022/07/29 01:15:44;;;;;;;6.00;4.00;;;;;;;17.09;71.57;99283.54;105175;1271;61840;-25
2022/07/29 01:18:18;;;;;;;6.70;4.10;;;;;;;16.84;72.67;99280.30;104817;1271;75823;-25
2022/07/29 01:20:57;;;;;;;10.70;5.70;;;;;;;16.63;73.43;99281.61;104771;1271;75470;-25
2022/07/29 01:23:47;;;;;;;8.00;3.10;;;;;;;16.46;73.89;99279.89;104770;1271;74548;-25
2022/07/29 01:26:43;;;;;;;7.20;3.80;;;;;;;17.07;73.56;99279.30;104790;1271;62081;-25
2022/07/29 01:29:34;;;;;;;7.10;3.40;;;;;;;17.56;71.97;99278.34;104692;1271;61173;-25
2022/07/29 01:32:15;;;;;;;9.00;4.20;;;;;;;17.50;71.55;99271.86;104677;1271;75378;-25
2022/07/29 01:35:16;;;;;;;7.90;3.90;;;;;;;17.26;71.94;99274.36;104754;1271;75391;-25
2022/07/29 01:37:45;;;;;;;8.20;4.60;;;;;;;16.98;72.75;99271.48;104738;1271;74540;-25
2022/07/29 01:40:43;;;;;;;5.90;4.30;;;;;;;16.75;73.31;99271.86;104904;1271;61895;-25
2022/07/29 01:43:14;;;;;;;7.40;3.10;;;;;;;16.59;74.41;99268.15;104691;1271;61157;-25
2022/07/29 01:45:45;;;;;;;7.50;3.30;;;;;;;17.11;73.91;99271.92;104978;1271;75543;-25
2022/07/29 01:48:23;;;;;;;6.60;3.90;;;;;;;17.54;72.41;99268.05;105143;1271;76016;-25
2022/07/29 01:51:11;;;;;;;9.80;3.90;;;;;;;17.49;72.05;99262.75;104848;1271;74670;-26
2022/07/29 01:53:54;;;;;;;5.40;3.60;;;;;;;17.24;72.60;99263.83;105141;1271;62077;-25
2022/07/29 01:56:22;;;;;;;7.30;3.70;;;;;;;16.98;73.49;99267.95;104803;1271;61959;-25
2022/07/29 01:58:50;;;;;;;8.30;4.60;;;;;;;16.83;73.87;99269.84;104926;1271;75486;-25
2022/07/29 02:01:20;;;;;;;8.00;3.20;;;;;;;16.66;74.13;99270.58;104761;1271;74855;-25
2022/07/29 02:03:47;;;;;;;6.20;3.20;;;;;;;16.91;74.61;99265.04;105044;1271;74680;-25
2022/07/29 02:06:20;;;;;;;7.00;3.40;;;;;;;17.44;73.51;99264.92;105090;1271;61899;-25
2022/07/29 02:08:49;;;;;;;6.70;4.10;;;;;;;17.46;72.53;99267.06;104806;1272;61152;-25
2022/07/29 02:11:19;;;;;;;4.60;2.70;;;;;;;17.30;73.09;99273.27;104877;1271;75340;-25
2022/07/29 02:13:53;;;;;;;6.40;2.70;;;;;;;17.04;73.62;99275.96;104924;1271;76006;-25
2022/07/29 02:16:23;;;;;;;3.30;2.60;;;;;;;16.78;74.25;99278.98;104738;1271;72891;-24
2022/07/29 02:18:52;;;;;;;3.60;2.10;;;;;;;16.53;74.94;99277.45;104852;1271;61048;-24
2022/07/29 02:21:23;;;;;;;4.90;1.70;;;;;;;16.41;75.12;99277.31;104911;1271;61138;-24
2022/07/29 02:23:52;;;;;;;2.60;1.70;;;;;;;16.82;74.03;99269.44;104904;1271;74645;-25
2022/07/29 02:26:22;;;;;;;2.50;1.50;;;;;;;17.22;72.46;99269.64;105148;1271;75051;-24
2022/07/29 02:28:54;;;;;;;3.00;1.80;;;;;;;17.33;72.08;99270.67;104965;1271;73410;-25
2022/07/29 02:31:24;;;;;;;7.90;2.00;;;;;;;17.13;72.10;99271.31;104781;1271;62136;-25
2022/07/29 02:33:52;;;;;;;4.60;2.20;;;;;;;16.79;73.14;99273.80;104879;1271;61742;-24
2022/07/29 02:36:21;;;;;;;4.80;2.50;;;;;;;16.61;73.92;99272.85;104675;1271;75553;-25
2022/07/29 02:38:52;;;;;;;4.30;3.50;;;;;;;16.36;75.07;99272.39;105168;1271;76298;-25
2022/07/29 02:41:22;;;;;;;1.80;1.30;;;;;;;16.22;75.52;99268.85;105009;1271;74802;-25
2022/07/29 02:43:54;;;;;;;6.70;1.70;;;;;;;16.68;74.14;99270.15;105107;1271;61064;-25
2022/07/29 02:46:34;;;;;;;4.30;1.70;;;;;;;17.16;72.74;99272.64;105160;1271;61033;-25
2022/07/29 02:49:15;;;;;;;2.90;1.80;;;;;;;17.28;72.52;99274.44;105122;1270;75212;-25
2022/07/29 02:51:57;;;;;;;5.30;1.80;;;;;;;17.10;72.78;99273.28;105133;1271;75995;-25
2022/07/29 02:54:32;;;;;;;5.10;2.30;;;;;;;16.79;73.16;99271.85;104722;1271;74308;-25
2022/07/29 02:57:01;;;;;;;13.30;5.40;;;;;;;16.45;73.92;99271.64;105289;1270;61051;-25
2022/07/29 02:59:28;;;;;;;17.70;6.80;;;;;;;16.14;75.57;99271.04;105054;1271;62330;-25
2022/07/29 03:01:56;;;;;;;9.70;3.90;;;;;;;15.98;76.26;99276.05;104951;1271;75363;-25
2022/07/29 03:04:25;;;;;;;4.90;2.20;;;;;;;16.51;75.23;99278.02;104770;1271;75809;-25
2022/07/29 03:06:53;;;;;;;4.90;2.90;;;;;;;17.05;73.15;99282.84;104739;1271;73307;-25
2022/07/29 03:09:21;;;;;;;5.90;3.60;;;;;;;16.99;72.42;99285.25;104911;1270;61106;-25
2022/07/29 03:11:49;;;;;;;8.30;4.20;;;;;;;16.84;72.82;99282.36;104852;1271;61854;-25
2022/07/29 03:14:18;;;;;;;6.50;3.30;;;;;;;16.63;73.40;99288.58;104983;1271;75503;-25
2022/07/29 03:16:48;;;;;;;7.00;3.00;;;;;;;16.40;74.30;99288.83;104759;1271;75133;-25
2022/07/29 03:19:16;;;;;;;4.40;1.80;;;;;;;16.29;75.33;99292.40;104936;1271;74586;-25
2022/07/29 03:21:44;;;;;;;3.10;2.10;;;;;;;16.70;74.68;99296.94;104798;1271;61321;-24
2022/07/29 03:24:24;;;;;;;5.80;2.00;;;;;;;17.20;73.13;99301.52;105025;1271;61178;-25
2022/07/29 03:26:52;;;;;;;2.40;2.20;;;;;;;17.22;72.15;99302.63;104977;1271;73498;-25
2022/07/29 03:29:19;;;;;;;4.40;2.30;;;;;;;17.07;72.45;99303.54;104958;1271;75876;-25
2022/07/29 03:31:47;;;;;;;7.10;3.00;;;;;;;16.77;72.84;99299.20;104695;1271;74586;-25
2022/07/29 03:34:16;;;;;;;7.10;4.10;;;;;;;16.50;73.45;99297.02;104957;1271;61961;-25
2022/07/29 03:36:50;;;;;;;14.70;11.70;;;;;;;16.35;74.23;99293.90;104881;1271;62052;-25
2022/07/29 03:39:21;;;;;;;10.40;5.90;;;;;;;16.34;74.38;99292.26;104806;1271;75158;-25
2022/07/29 03:41:53;;;;;;;11.60;6.80;;;;;;;16.87;72.61;99295.73;104759;1271;75745;-25
2022/07/29 03:44:20;;;;;;;11.60;7.50;;;;;;;17.48;71.00;99291.54;104799;1271;74337;-25
2022/07/29 03:46:48;;;;;;;4.40;3.40;;;;;;;17.52;69.82;99292.83;104939;1271;61869;-25
2022/07/29 03:49:17;;;;;;;5.80;3.90;;;;;;;17.40;70.62;99295.02;104953;1270;62102;-25
2022/07/29 03:51:45;;;;;;;16.50;11.20;;;;;;;17.06;71.32;99298.22;104847;1271;75468;-25
2022/07/29 03:54:16;;;;;;;15.70;10.60;;;;;;;16.90;72.25;99299.05;104850;1271;76080;-25
2022/07/29 03:56:47;;;;;;;7.90;5.10;;;;;;;16.69;72.85;99295.33;104812;1271;74178;-25
2022/07/29 03:59:15;;;;;;;3.80;2.40;;;;;;;16.73;73.10;99293.28;104879;1271;61141;-25
2022/07/29 04:01:42;;;;;;;3.90;2.40;;;;;;;17.28;71.77;99287.64;104804;1271;61277;-25
2022/07/29 04:04:11;;;;;;;2.90;2.10;;;;;;;17.85;69.20;99286.19;104912;1271;75528;-25
2022/07/29 04:06:41;;;;;;;3.50;2.60;;;;;;;18.08;68.82;99283.02;104968;1271;76265;-25
2022/07/29 04:09:08;;;;;;;7.40;3.00;;;;;;;18.11;68.33;99283.21;104809;1271;74416;-25
2022/07/29 04:11:38;;;;;;;5.00;3.30;;;;;;;17.95;68.94;99287.48;104897;1271;61043;-25
2022/07/29 04:14:27;;;;;;;7.50;3.90;;;;;;;17.89;69.50;99285.56;104786;1271;61144;-25
2022/07/29 04:16:56;;;;;;;7.00;4.10;;;;;;;17.98;69.62;99286.52;105001;1270;75521;-24
2022/07/29 04:19:24;;;;;;;12.50;6.70;;;;;;;17.96;69.16;99288.86;105244;1271;76444;-25
2022/07/29 04:21:53;;;;;;;6.70;4.00;;;;;;;17.85;68.45;99289.65;104924;1271;74372;-25
2022/07/29 04:24:21;;;;;;;12.30;6.70;;;;;;;18.47;68.70;99292.24;104951;1271;61112;-25
2022/07/29 04:26:50;;;;;;;13.50;8.10;;;;;;;18.84;66.31;99292.63;105021;1271;62233;-25
2022/07/29 04:29:23;;;;;;;5.30;3.60;;;;;;;19.07;65.89;99292.52;104822;1271;74733;-25
2022/07/29 04:31:51;;;;;;;6.20;3.10;;;;;;;19.11;65.30;99298.24;104978;1271;75014;-24
2022/07/29 04:34:19;;;;;;;5.00;2.80;;;;;;;19.20;65.94;99299.84;104890;1271;74541;-24
2022/07/29 04:36:47;;;;;;;12.40;8.00;;;;;;;18.99;64.69;99299.86;104953;1271;61160;-24
2022/07/29 04:39:15;;;;;;;8.40;5.00;;;;;;;18.91;65.01;99303.25;104971;1271;62130;-24
2022/07/29 04:41:50;;;;;;;8.30;5.10;;;;;;;18.82;66.14;99304.73;104934;1271;75614;-24
2022/07/29 04:44:23;;;;;;;5.70;4.20;;;;;;;18.51;66.67;99302.44;104724;1271;76302;-24
2022/07/29 04:46:57;;;;;;;17.00;8.90;;;;;;;18.27;67.83;99297.03;105013;1271;74313;-24
2022/07/29 04:49:25;;;;;;;11.20;5.80;;;;;;;18.30;68.15;99295.36;104859;1271;61699;-24
2022/07/29 04:51:53;;;;;;;8.90;5.40;;;;;;;18.58;67.25;99297.59;104939;1271;61069;-25
2022/07/29 04:54:22;;;;;;;8.80;5.50;;;;;;;19.28;65.58;99297.17;104964;1271;75495;-24
2022/07/29 04:56:52;;;;;;;8.50;3.50;;;;;;;19.59;65.10;99293.44;104925;1271;76168;-24
2022/07/29 04:59:20;;;;;;;12.40;7.10;;;;;;;19.65;64.55;99293.56;105161;1271;74281;-24
2022/07/29 05:01:48;;;;;;;24.30;15.50;;;;;;;19.58;64.90;99296.91;105150;1271;62104;-24
2022/07/29 05:04:19;;;;;;;13.20;5.70;;;;;;;19.51;65.12;99301.59;105322;1271;61143;-24
2022/07/29 05:06:49;;;;;;;17.20;8.70;;;;;;;19.49;64.94;99300.48;105251;1271;73645;-24
2022/07/29 05:09:17;;;;;;;16.10;9.20;;;;;;;19.19;64.47;99306.80;104961;1271;75011;-24
2022/07/29 05:11:44;;;;;;;21.60;13.80;;;;;;;19.15;65.07;99307.29;104966;1271;74559;-24
2022/07/29 05:14:14;;;;;;;11.10;5.60;;;;;;;19.15;65.68;99307.45;105098;1271;61989;-24
2022/07/29 05:16:43;;;;;;;7.20;3.90;;;;;;;19.03;66.36;99306.73;105314;1271;62026;-24
2022/07/29 05:19:13;;;;;;;5.90;2.10;;;;;;;19.09;66.87;99305.17;105148;1271;75746;-24
2022/07/29 05:21:44;;;;;;;7.90;2.20;;;;;;;19.84;64.77;99300.65;104945;1271;75849;-24
2022/07/29 05:24:17;;;;;;;4.90;3.10;;;;;;;20.68;62.49;99297.41;104756;1271;75319;-24
2022/07/29 05:26:45;;;;;;;6.60;3.20;;;;;;;20.74;60.73;99295.00;104937;1271;61123;-24
2022/07/29 05:29:13;;;;;;;4.30;3.20;;;;;;;20.76;61.30;99299.79;104960;1271;61945;-24
2022/07/29 05:32:04;;;;;;;8.80;2.80;;;;;;;20.66;60.96;99300.96;105074;1270;75768;-24
2022/07/29 05:34:31;;;;;;;5.50;4.00;;;;;;;20.41;61.71;99298.96;104899;1271;77096;-25
2022/07/29 05:37:00;;;;;;;11.00;3.00;;;;;;;20.48;62.60;99302.46;104942;1271;74246;-24
2022/07/29 05:39:27;;;;;;;10.30;3.70;;;;;;;20.61;62.12;99307.56;104903;1271;61121;-24
2022/07/29 05:42:14;;;;;;;4.40;3.20;;;;;;;20.90;61.51;99312.21;104952;1271;62085;-24
2022/07/29 05:44:42;;;;;;;7.00;2.70;;;;;;;21.18;59.92;99313.05;104938;1270;75435;-24
2022/07/29 05:47:11;;;;;;;5.90;2.70;;;;;;;21.38;59.95;99311.30;104936;1271;75987;-24
2022/07/29 05:49:39;;;;;;;6.50;2.50;;;;;;;21.59;59.21;99313.56;104956;1270;74520;-24
2022/07/29 05:52:09;;;;;;;5.10;2.40;;;;;;;21.68;58.93;99312.10;104929;1270;62100;-24
2022/07/29 05:54:36;;;;;;;5.30;2.40;;;;;;;21.51;57.96;99311.04;104942;1270;61169;-24
2022/07/29 05:57:05;;;;;;;3.10;1.90;;;;;;;21.50;57.43;99314.10;104969;1271;76789;-24
2022/07/29 05:59:36;;;;;;;3.50;1.90;;;;;;;21.60;56.53;99311.37;104872;1271;74953;-24
2022/07/29 06:02:04;;;;;;;3.40;2.30;;;;;;;21.73;56.85;99314.19;104808;1271;73632;-24
2022/07/29 06:04:33;;;;;;;11.00;2.30;;;;;;;21.82;56.33;99313.03;104942;1271;61865;-24
2022/07/29 06:07:01;;;;;;;5.00;2.20;;;;;;;22.00;56.00;99311.70;104924;1271;62662;-24
2022/07/29 06:09:31;;;;;;;4.70;2.20;;;;;;;22.17;55.58;99317.92;105010;1270;75630;-24
2022/07/29 06:12:03;;;;;;;6.40;2.20;;;;;;;22.30;55.23;99314.77;105057;1271;75998;-24
2022/07/29 06:14:35;;;;;;;6.00;2.10;;;;;;;22.40;54.88;99316.67;104760;1271;74392;-24
2022/07/29 06:17:03;;;;;;;4.20;2.10;;;;;;;22.59;54.93;99311.77;104899;1271;61195;-24
2022/07/29 06:19:35;;;;;;;4.60;1.90;;;;;;;22.73;53.82;99310.76;104818;1271;61124;-24
2022/07/29 06:22:05;;;;;;;2.90;2.20;;;;;;;22.79;53.83;99312.95;104654;1271;75422;-24
2022/07/29 06:24:33;;;;;;;6.30;3.00;;;;;;;23.09;54.00;99313.58;104968;1271;75053;-24
2022/07/29 06:27:03;;;;;;;5.60;2.40;;;;;;;23.23;53.75;99313.05;104961;1271;74258;-24
2022/07/29 06:29:33;;;;;;;4.60;2.40;;;;;;;23.45;53.17;99313.78;104950;1270;61142;-24
2022/07/29 06:32:04;;;;;;;5.60;2.50;;;;;;;23.36;52.07;99318.09;104990;1271;62084;-24
2022/07/29 06:34:31;;;;;;;9.70;3.30;;;;;;;23.14;53.47;99317.47;104675;1271;75514;-23
2022/07/29 06:36:59;;;;;;;8.50;2.70;;;;;;;23.21;53.60;99313.73;104992;1271;76289;-23
2022/07/29 06:39:27;;;;;;;3.50;2.40;;;;;;;23.13;54.16;99315.46;105050;1271;72104;-23
2022/07/29 06:41:56;;;;;;;5.40;3.00;;;;;;;23.16;53.60;99315.38;104951;1271;62231;-23
2022/07/29 06:44:27;;;;;;;6.50;2.20;;;;;;;23.28;53.13;99312.78;104846;1271;61085;-25
2022/07/29 06:46:57;;;;;;;4.80;2.20;;;;;;;23.45;53.36;99312.51;105101;1271;76458;-23
2022/07/29 06:49:25;;;;;;;4.50;2.40;;;;;;;23.61;53.08;99313.59;104955;1271;74854;-23
2022/07/29 06:51:56;;;;;;;6.80;2.50;;;;;;;23.68;52.63;99316.89;104959;1271;74424;-23
2022/07/29 06:54:24;;;;;;;5.80;2.10;;;;;;;23.70;53.07;99312.33;104967;1270;61149;-23
2022/07/29 06:56:51;;;;;;;12.40;2.60;;;;;;;23.68;52.79;99315.14;105319;1271;60981;-23
2022/07/29 06:59:19;;;;;;;3.80;2.30;;;;;;;23.68;52.93;99313.92;105269;1271;75767;-23
2022/07/29 07:01:55;;;;;;;6.40;2.10;;;;;;;23.67;52.69;99317.59;105243;1271;75831;-23
2022/07/29 07:04:23;;;;;;;3.80;2.40;;;;;;;23.61;52.47;99317.48;104871;1271;74350;-23
2022/07/29 07:06:50;;;;;;;6.20;2.60;;;;;;;23.59;52.59;99318.05;104883;1271;61154;-23
2022/07/29 07:09:21;;;;;;;8.70;2.60;;;;;;;23.59;53.36;99321.08;104915;1270;61045;-23
2022/07/29 07:11:50;;;;;;;6.50;2.40;;;;;;;23.45;54.33;99323.19;104832;1272;75454;-23
2022/07/29 07:14:18;;;;;;;3.80;2.40;;;;;;;23.31;55.17;99326.93;105126;1271;76767;-23
2022/07/29 07:16:46;;;;;;;4.40;2.10;;;;;;;23.21;54.91;99329.13;104954;1271;74275;-23
2022/07/29 07:19:14;;;;;;;4.80;2.40;;;;;;;23.16;55.10;99328.14;104983;1271;61436;-23
2022/07/29 07:21:42;;;;;;;5.70;2.40;;;;;;;23.07;54.16;99324.31;104948;1270;61131;-24
2022/07/29 07:24:09;;;;;;;5.70;2.30;;;;;;;23.15;55.02;99321.52;104656;1270;74516;-23
2022/07/29 07:26:39;;;;;;;4.60;2.20;;;;;;;23.27;53.43;99324.64;104822;1271;76343;-23
2022/07/29 07:29:07;;;;;;;3.70;2.10;;;;;;;23.19;53.27;99319.58;105024;1271;74376;-23
2022/07/29 07:31:37;;;;;;;4.70;2.00;;;;;;;23.18;54.93;99320.20;105125;1271;61848;-24
2022/07/29 07:34:06;;;;;;;4.10;2.20;;;;;;;23.35;54.55;99317.70;104791;1271;62293;-23
2022/07/29 07:36:33;;;;;;;2.30;1.90;;;;;;;23.51;52.01;99319.18;105127;1270;75493;-24
2022/07/29 07:39:01;;;;;;;5.70;2.30;;;;;;;23.61;52.23;99322.79;105090;1271;76199;-23
2022/07/29 07:41:28;;;;;;;7.50;1.80;;;;;;;23.50;52.17;99324.58;105059;1271;74391;-23
2022/07/29 07:43:59;;;;;;;2.80;1.60;;;;;;;23.28;51.17;99326.98;105247;1271;63699;-23
2022/07/29 07:46:29;;;;;;;2.20;2.00;;;;;;;23.19;52.72;99326.30;105285;1271;61155;-25
2022/07/29 07:48:56;;;;;;;1.60;1.50;;;;;;;23.17;52.10;99328.54;105074;1271;75718;-25
2022/07/29 07:51:27;;;;;;;2.80;2.00;;;;;;;23.13;52.20;99324.81;104982;1271;76072;-24
2022/07/29 07:53:54;;;;;;;3.80;1.80;;;;;;;23.16;52.56;99328.06;105205;1271;74311;-25
2022/07/29 07:56:24;;;;;;;7.50;2.10;;;;;;;23.20;52.50;99327.11;105141;1272;61787;-24
2022/07/29 07:58:51;;;;;;;4.00;1.90;;;;;;;23.23;52.71;99324.21;105081;1271;61576;-24
2022/07/29 08:01:22;;;;;;;5.90;1.80;;;;;;;23.27;52.56;99323.91;105095;1271;75390;-24
2022/07/29 08:03:51;;;;;;;2.40;1.90;;;;;;;23.27;52.55;99329.86;105042;1271;76125;-25
2022/07/29 08:06:19;;;;;;;4.00;2.10;;;;;;;23.30;52.31;99333.60;105054;1271;74428;-24
2022/07/29 08:08:47;;;;;;;12.80;2.40;;;;;;;23.29;52.56;99336.56;104961;1270;62455;-24
2022/07/29 08:11:14;;;;;;;5.40;2.60;;;;;;;23.23;51.47;99333.98;104961;1271;61156;-24
2022/07/29 08:13:42;;;;;;;6.20;2.90;;;;;;;23.24;51.62;99334.42;104922;1271;75514;-25
2022/07/29 08:16:14;;;;;;;7.70;2.90;;;;;;;23.37;52.74;99337.02;104845;1271;75798;-24
2022/07/29 08:18:44;;;;;;;5.80;2.50;;;;;;;23.49;52.29;99336.68;104813;1272;73353;-24
2022/07/29 08:21:12;;;;;;;3.60;2.10;;;;;;;23.58;51.83;99342.30;104832;1271;62061;-24
2022/07/29 08:23:48;;;;;;;12.70;7.20;;;;;;;23.69;51.65;99346.92;104823;1271;61918;-25
2022/07/29 08:26:26;;;;;;;;;;;;;;;23.74;51.39;99348.45;104452;1274;75441;-25
2022/07/29 08:28:54;;;;;;;5.40;3.10;;;;;;;23.79;52.80;99347.05;104832;1271;76145;-24
2022/07/29 08:31:22;;;;;;;4.70;3.10;;;;;;;23.84;53.74;99349.27;104810;1271;74578;-24
2022/07/29 08:33:49;;;;;;;12.10;2.90;;;;;;;23.76;53.20;99352.90;104948;1271;61026;-24
2022/07/29 08:36:17;;;;;;;26.30;3.70;;;;;;;23.81;53.68;99346.64;104976;1271;61136;-24
2022/07/29 08:38:46;;;;;;;5.90;2.80;;;;;;;23.91;53.45;99347.00;104815;1272;75415;-24
2022/07/29 08:41:14;;;;;;;3.90;2.80;;;;;;;23.79;52.30;99351.05;104771;1272;75745;-24
2022/07/29 08:43:41;;;;;;;7.30;2.60;;;;;;;23.65;53.66;99350.65;104933;1271;74388;-25
2022/07/29 08:46:09;;;;;;;11.40;4.20;;;;;;;23.99;54.09;99350.33;104939;1271;61220;-24
2022/07/29 08:48:38;;;;;;;6.70;4.20;;;;;;;24.18;52.82;99347.82;104962;1271;61276;-24
2022/07/29 08:51:08;;;;;;;6.40;3.10;;;;;;;23.95;52.18;99345.96;105012;1272;75722;-24
2022/07/29 08:53:37;;;;;;;4.70;2.80;;;;;;;23.98;53.41;99347.74;104871;1270;75510;-25
2022/07/29 08:56:05;;;;;;;6.40;2.80;;;;;;;23.75;52.51;99349.38;104872;1271;74319;-24
2022/07/29 08:58:33;;;;;;;5.90;2.40;;;;;;;23.48;53.54;99352.02;104850;1271;61147;-24
2022/07/29 09:01:05;;;;;;;7.60;2.50;;;;;;;23.95;54.20;99348.65;104945;1271;61061;-24
2022/07/29 09:03:44;;;;;;;5.40;2.50;;;;;;;24.22;53.23;99347.20;104991;1271;75330;-25
2022/07/29 09:06:17;;;;;;;5.60;3.10;;;;;;;23.88;52.48;99348.55;104679;1271;76066;-24
2022/07/29 09:08:45;;;;;;;6.30;2.70;;;;;;;23.17;53.04;99348.90;104912;1271;73207;-24
2022/07/29 09:11:13;;;;;;;6.70;3.60;;;;;;;23.19;53.34;99348.01;104855;1271;60982;-24
2022/07/29 09:13:40;;;;;;;6.80;3.60;;;;;;;23.63;53.34;99345.53;104785;1272;61200;-25
2022/07/29 09:16:09;;;;;;;6.90;2.90;;;;;;;23.78;52.31;99342.70;104922;1271;77136;-24
2022/07/29 09:18:41;;;;;;;15.50;6.30;;;;;;;23.51;53.49;99345.36;104833;1271;75921;-24
2022/07/29 09:24:12;;;;;;;8.10;4.70;;;;;;;24.40;51.18;99338.02;104791;1271;61122;-24
2022/07/29 09:26:41;;;;;;;6.80;2.70;;;;;;;24.54;51.26;99336.68;104814;1271;61012;-24
2022/07/29 09:29:15;;;;;;;8.50;5.10;;;;;;;24.27;50.91;99339.13;104765;1271;74591;-24
2022/07/29 09:31:50;;;;;;;5.70;4.30;;;;;;;24.50;50.98;99335.48;104808;1271;76663;-25
2022/07/29 09:34:24;;;;;;;16.50;12.10;;;;;;;24.39;50.73;99335.05;104830;1271;74227;-24
2022/07/29 09:36:53;;;;;;;12.00;7.50;;;;;;;24.51;50.99;99336.65;104938;1271;61080;-24
2022/07/29 09:39:31;;;;;;;14.40;7.30;;;;;;;24.23;49.89;99335.86;104690;1271;61084;-24
2022/07/29 09:42:01;;;;;;;16.10;11.60;;;;;;;24.33;50.16;99331.58;104768;1272;75601;-24
2022/07/29 09:44:58;;;;;;;6.30;3.80;;;;;;;24.57;50.13;99327.27;104689;1272;78080;-24
2022/07/29 09:47:48;;;;;;;9.60;3.10;;;;;;;24.97;48.84;99322.69;104656;1271;74293;-24
2022/07/29 09:50:23;;;;;;;7.40;2.00;;;;;;;25.24;48.26;99326.47;104736;1271;61468;-24
2022/07/29 09:52:51;;;;;;;6.00;2.40;;;;;;;25.64;47.90;99326.20;104949;1271;62339;-24
2022/07/29 09:55:19;;;;;;;4.30;2.30;;;;;;;25.92;45.03;99325.73;104678;1274;75373;-24
2022/07/29 09:57:46;;;;;;;4.00;2.20;;;;;;;26.21;45.46;99324.94;104838;1271;76185;-25
2022/07/29 10:00:17;;;;;;;7.20;5.20;;;;;;;25.93;44.44;99323.58;104941;1271;74502;-25
2022/07/29 10:02:46;;;;;;;7.30;4.50;;;;;;;25.74;45.24;99320.02;104646;1274;61417;-24
2022/07/29 10:05:22;;;;;;;16.70;3.10;;;;;;;25.58;45.58;99319.85;104948;1271;61114;-24
2022/07/29 10:07:56;;;;;;;5.80;2.00;;;;;;;26.11;46.19;99320.55;104621;1274;75743;-24
2022/07/29 10:10:26;;;;;;;4.60;2.30;;;;;;;26.53;45.64;99320.52;104701;1274;76366;-24
2022/07/29 10:13:02;;;;;;;8.00;3.40;;;;;;;26.63;44.00;99319.92;104665;1275;74478;-24
2022/07/29 10:15:40;;;;;;;7.80;4.20;;;;;;;26.53;43.46;99313.67;104655;1274;61188;-24
2022/07/29 10:18:08;;;;;;;13.70;3.70;;;;;;;26.14;44.49;99315.09;104617;1271;61788;-24
2022/07/29 10:20:40;;;;;;;13.70;3.60;;;;;;;26.35;45.34;99309.31;104982;1271;75605;-24
2022/07/29 10:23:08;;;;;;;9.90;6.50;;;;;;;26.80;44.06;99309.95;104976;1271;75992;-24
2022/07/29 10:25:37;;;;;;;9.00;6.50;;;;;;;26.81;43.47;99306.45;104952;1271;74444;-24
2022/07/29 10:28:05;;;;;;;7.70;4.30;;;;;;;27.02;43.15;99302.52;104755;1271;61019;-24
2022/07/29 10:30:39;;;;;;;4.60;1.90;;;;;;;27.86;41.80;99302.40;105066;1271;62028;-24
2022/07/29 10:33:24;;;;;;;5.50;4.10;;;;;;;28.52;40.22;99298.26;105064;1271;75130;-24
2022/07/29 10:36:10;;;;;;;7.80;2.80;;;;;;;28.91;41.05;99294.73;105065;1270;75622;-24
2022/07/29 10:39:05;;;;;;;6.00;4.70;;;;;;;28.89;39.47;99290.73;104799;1271;72648;-24
2022/07/29 10:41:46;;;;;;;3.20;1.90;;;;;;;28.98;39.28;99293.55;104809;1271;61898;-24
2022/07/29 10:44:17;;;;;;;2.60;1.60;;;;;;;29.21;37.09;99283.29;105004;1274;62081;-24
2022/07/29 10:46:50;;;;;;;2.80;1.50;;;;;;;29.84;36.57;99283.54;104805;1271;74511;-24
2022/07/29 10:49:26;;;;;;;4.40;1.80;;;;;;;30.31;36.13;99280.42;104868;1271;75601;-24
2022/07/29 10:51:55;;;;;;;5.00;1.70;;;;;;;30.42;36.63;99279.30;104623;1271;73488;-24
2022/07/29 10:54:39;;;;;;;2.80;1.50;;;;;;;29.94;36.51;99279.23;104689;1271;61107;-25
2022/07/29 10:57:14;;;;;;;5.40;1.80;;;;;;;29.46;36.89;99277.92;104757;1272;62096;-24
2022/07/29 11:00:08;;;;;;;3.70;3.00;;;;;;;28.97;37.76;99275.23;105001;1271;75902;-24
2022/07/29 11:02:42;;;;;;;4.30;2.80;;;;;;;29.12;36.72;99271.62;104762;1271;75911;-24
2022/07/29 11:05:14;;;;;;;3.30;1.60;;;;;;;28.71;36.07;99270.67;104668;1272;73051;-24
2022/07/29 11:08:11;;;;;;;4.70;1.30;;;;;;;29.06;35.81;99268.70;104779;1271;61939;-24
2022/07/29 11:10:48;;;;;;;1.90;1.30;;;;;;;29.60;36.28;99261.40;104768;1272;61137;-24
2022/07/29 11:13:47;;;;;;;4.30;3.20;;;;;;;30.19;36.06;99260.23;105161;1271;75481;-24
2022/07/29 11:16:21;;;;;;;6.70;4.30;;;;;;;29.95;36.65;99261.14;104928;1271;75925;-24
2022/07/29 11:19:10;;;;;;;6.70;4.00;;;;;;;30.43;34.67;99254.02;104898;1271;73406;-25
2022/07/29 11:21:41;;;;;;;3.00;1.20;;;;;;;30.94;33.74;99256.64;105178;1271;61139;-24
2022/07/29 11:24:28;;;;;;;2.90;1.40;;;;;;;31.35;33.03;99251.64;104716;1272;62079;-24
2022/07/29 11:27:08;;;;;;;1.80;1.30;;;;;;;31.16;32.81;99252.92;104788;1272;75564;-24
2022/07/29 11:29:48;;;;;;;3.10;1.60;;;;;;;31.35;34.21;99247.86;105032;1271;76470;-24
2022/07/29 11:32:35;;;;;;;3.10;1.80;;;;;;;31.60;31.74;99243.69;104929;1271;74406;-24
2022/07/29 11:35:21;;;;;;;2.00;1.30;;;;;;;31.93;31.23;99235.90;104613;1271;61143;-24
2022/07/29 11:38:26;;;;;;;3.40;2.10;;;;;;;31.64;31.95;99234.76;104944;1271;61180;-24
2022/07/29 11:41:17;;;;;;;3.70;1.50;;;;;;;30.66;33.07;99236.11;104816;1271;74515;-25
2022/07/29 11:43:46;;;;;;;3.50;1.50;;;;;;;30.88;33.39;99229.94;105149;1271;75852;-24
2022/07/29 11:46:51;;;;;;;5.30;1.70;;;;;;;30.78;32.26;99226.08;104980;1271;74465;-24
2022/07/29 11:49:42;;;;;;;1.70;1.30;;;;;;;31.17;32.55;99230.56;105212;1271;61160;-24